createdAt,value
2023-05-06T00:00:08.504Z,100.00
2023-05-06T00:02:43.164Z,100.00
2023-05-06T00:05:10.495Z,100.00
2023-05-06T00:07:37.752Z,100.00
2023-05-06T00:10:05.255Z,100.00
2023-05-06T00:12:32.278Z,100.00
2023-05-06T00:14:59.280Z,100.00
2023-05-06T00:17:26.381Z,100.00
2023-05-06T00:19:53.509Z,100.00
2023-05-06T00:22:20.487Z,100.00
2023-05-06T00:24:47.725Z,100.00
2023-05-06T00:27:14.668Z,100.00
2023-05-06T00:29:41.810Z,100.00
2023-05-06T00:32:08.840Z,100.00
2023-05-06T00:34:36.024Z,100.00
2023-05-06T00:37:03.437Z,100.00
2023-05-06T00:39:30.895Z,100.00
2023-05-06T00:42:02.451Z,100.00
2023-05-06T00:44:30.358Z,100.00
2023-05-06T00:46:59.513Z,100.00
2023-05-06T00:49:28.206Z,100.00
2023-05-06T00:51:56.829Z,100.00
2023-05-06T00:54:26.349Z,100.00
2023-05-06T00:56:54.400Z,100.00
2023-05-06T00:59:23.004Z,100.00
2023-05-06T01:01:50.292Z,100.00
2023-05-06T01:04:17.195Z,100.00
2023-05-06T01:06:55.581Z,100.00
2023-05-06T01:09:51.529Z,100.00
2023-05-06T01:12:34.353Z,100.00
2023-05-06T01:15:13.113Z,100.00
2023-05-06T01:17:44.358Z,100.00
2023-05-06T01:20:13.074Z,100.00
2023-05-06T01:22:40.220Z,100.00
2023-05-06T01:25:08.419Z,100.00
2023-05-06T01:27:35.722Z,100.00
2023-05-06T01:30:05.158Z,100.00
2023-05-06T01:32:55.173Z,100.00
2023-05-06T01:35:35.667Z,100.00
2023-05-06T01:38:35.057Z,100.00
2023-05-06T01:41:03.111Z,100.00
2023-05-06T01:43:38.468Z,100.00
2023-05-06T01:46:07.218Z,100.00
2023-05-06T01:48:37.266Z,100.00
2023-05-06T01:51:04.472Z,100.00
2023-05-06T01:53:33.339Z,100.00
2023-05-06T01:56:04.178Z,100.00
2023-05-06T01:58:31.289Z,100.00
2023-05-06T02:00:58.706Z,100.00
2023-05-06T02:03:25.990Z,100.00
2023-05-06T02:05:53.140Z,100.00
2023-05-06T02:08:20.875Z,100.00
2023-05-06T02:10:48.085Z,100.00
2023-05-06T02:13:15.171Z,100.00
2023-05-06T02:15:42.689Z,100.00
2023-05-06T02:18:15.159Z,100.00
2023-05-06T02:20:42.147Z,100.00
2023-05-06T02:23:14.957Z,100.00
2023-05-06T02:25:41.956Z,100.00
2023-05-06T02:28:08.835Z,100.00
2023-05-06T02:30:36.766Z,100.00
2023-05-06T02:33:03.989Z,100.00
2023-05-06T02:35:30.962Z,100.00
2023-05-06T02:37:57.988Z,100.00
2023-05-06T02:40:25.105Z,100.00
2023-05-06T02:42:52.563Z,100.00
2023-05-06T02:45:19.665Z,100.00
2023-05-06T02:47:46.654Z,100.00
2023-05-06T02:50:13.616Z,100.00
2023-05-06T02:52:40.585Z,100.00
2023-05-06T02:55:07.911Z,100.00
2023-05-06T02:57:34.920Z,100.00
2023-05-06T03:00:02.014Z,100.00
2023-05-06T03:02:29.006Z,100.00
2023-05-06T03:04:56.082Z,100.00
2023-05-06T03:07:23.008Z,100.00
2023-05-06T03:09:50.087Z,100.00
2023-05-06T03:12:17.125Z,100.00
2023-05-06T03:14:44.179Z,100.00
2023-05-06T03:17:11.585Z,100.00
2023-05-06T03:19:38.542Z,100.00
2023-05-06T03:22:07.612Z,100.00
2023-05-06T03:24:38.009Z,100.00
2023-05-06T03:27:06.571Z,100.00
2023-05-06T03:29:33.494Z,100.00
2023-05-06T03:32:04.539Z,100.00
2023-05-06T03:34:37.349Z,100.00
2023-05-06T03:37:04.344Z,100.00
2023-05-06T03:39:31.289Z,100.00
2023-05-06T03:41:59.523Z,100.00
2023-05-06T03:44:26.940Z,100.00
2023-05-06T03:46:53.914Z,100.00
2023-05-06T03:49:23.006Z,100.00
2023-05-06T03:51:50.118Z,100.00
2023-05-06T03:54:18.386Z,100.00
2023-05-06T03:56:46.440Z,100.00
2023-05-06T03:59:15.161Z,100.00
2023-05-06T04:01:42.940Z,100.00
2023-05-06T04:04:11.662Z,100.00
2023-05-06T04:06:39.147Z,100.00
2023-05-06T04:09:06.558Z,100.00
2023-05-06T04:11:36.579Z,100.00
2023-05-06T04:14:04.900Z,100.00
2023-05-06T04:16:32.311Z,100.00
2023-05-06T04:18:59.243Z,100.00
2023-05-06T04:21:26.257Z,100.00
2023-05-06T04:24:02.718Z,100.00
2023-05-06T04:26:36.859Z,100.00
2023-05-06T04:29:04.546Z,100.00
2023-05-06T04:31:35.273Z,100.00
2023-05-06T04:34:06.165Z,100.00
2023-05-06T04:36:33.941Z,100.00
2023-05-06T04:39:27.243Z,100.00
2023-05-06T04:41:54.627Z,100.00
2023-05-06T04:44:29.694Z,100.00
2023-05-06T04:46:57.628Z,100.00
2023-05-06T04:49:24.588Z,100.00
2023-05-06T04:51:51.942Z,100.00
2023-05-06T04:54:19.291Z,100.00
2023-05-06T04:56:46.448Z,100.00
2023-05-06T04:59:15.386Z,100.00
2023-05-06T05:01:43.769Z,100.00
2023-05-06T05:04:11.676Z,100.00
2023-05-06T05:06:39.832Z,100.00
2023-05-06T05:09:06.885Z,100.00
2023-05-06T05:11:38.307Z,100.00
2023-05-06T05:14:05.381Z,100.00
2023-05-06T05:16:32.925Z,100.00
2023-05-06T05:19:03.528Z,100.00
2023-05-06T05:21:33.111Z,100.00
2023-05-06T05:24:00.545Z,100.00
2023-05-06T05:26:27.593Z,100.00
2023-05-06T05:28:56.306Z,100.00
2023-05-06T05:31:24.052Z,100.00
2023-05-06T05:33:51.485Z,100.00
2023-05-06T05:36:21.519Z,100.00
2023-05-06T05:38:50.950Z,100.00
2023-05-06T05:41:19.109Z,100.00
2023-05-06T05:43:46.226Z,100.00
2023-05-06T05:46:14.561Z,100.00
2023-05-06T05:48:42.589Z,100.00
2023-05-06T05:51:10.773Z,100.00
2023-05-06T05:53:38.119Z,100.00
2023-05-06T05:56:06.564Z,100.00
2023-05-06T05:58:34.180Z,100.00
2023-05-06T06:01:01.870Z,100.00
2023-05-06T06:03:29.485Z,100.00
2023-05-06T06:05:56.658Z,100.00
2023-05-06T06:08:26.649Z,100.00
2023-05-06T06:10:55.111Z,100.00
2023-05-06T06:13:28.420Z,100.00
2023-05-06T06:15:56.761Z,100.00
2023-05-06T06:18:24.433Z,100.00
2023-05-06T06:20:53.262Z,100.00
2023-05-06T06:23:21.319Z,100.00
2023-05-06T06:25:49.521Z,100.00
2023-05-06T06:28:16.618Z,100.00
2023-05-06T06:30:44.777Z,100.00
2023-05-06T06:33:12.080Z,100.00
2023-05-06T06:35:40.186Z,100.00
2023-05-06T06:38:07.045Z,100.00
2023-05-06T06:40:34.040Z,100.00
2023-05-06T06:43:01.458Z,100.00
2023-05-06T06:45:50.086Z,100.00
2023-05-06T06:48:17.158Z,100.00
2023-05-06T06:50:44.175Z,100.00
2023-05-06T06:53:11.293Z,100.00
2023-05-06T06:55:38.374Z,100.00
2023-05-06T06:58:05.576Z,100.00
2023-05-06T07:00:32.528Z,100.00
2023-05-06T07:02:59.440Z,100.00
2023-05-06T07:05:27.281Z,100.00
2023-05-06T07:07:55.513Z,100.00
2023-05-06T07:10:22.823Z,100.00
2023-05-06T07:12:49.878Z,100.00
2023-05-06T07:15:16.862Z,100.00
2023-05-06T07:17:44.197Z,100.00
2023-05-06T07:20:11.798Z,100.00
2023-05-06T07:22:39.334Z,100.00
2023-05-06T07:25:06.851Z,100.00
2023-05-06T07:27:33.819Z,100.00
2023-05-06T07:30:00.924Z,100.00
2023-05-06T07:32:28.020Z,100.00
2023-05-06T07:34:54.912Z,100.00
2023-05-06T07:37:21.873Z,100.00
2023-05-06T07:39:48.955Z,100.00
2023-05-06T07:42:15.930Z,100.00
2023-05-06T07:44:42.904Z,100.00
2023-05-06T07:47:10.010Z,100.00
2023-05-06T07:49:37.129Z,100.00
2023-05-06T07:52:04.400Z,100.00
2023-05-06T07:54:32.014Z,100.00
2023-05-06T07:56:59.254Z,100.00
2023-05-06T07:59:26.249Z,100.00
2023-05-06T08:01:53.296Z,100.00
2023-05-06T08:04:20.254Z,100.00
2023-05-06T08:06:47.217Z,100.00
2023-05-06T08:09:22.327Z,100.00
2023-05-06T08:11:50.900Z,100.00
2023-05-06T08:14:17.815Z,100.00
2023-05-06T08:16:44.980Z,100.00
2023-05-06T08:19:12.074Z,98.54
2023-05-06T08:21:39.124Z,100.00
2023-05-06T08:24:06.359Z,100.00
2023-05-06T08:26:33.300Z,97.38
2023-05-06T08:29:00.429Z,97.68
2023-05-06T08:31:27.420Z,94.37
2023-05-06T08:33:54.783Z,92.37
2023-05-06T08:36:22.615Z,91.92
2023-05-06T08:38:51.138Z,92.11
2023-05-06T08:41:19.925Z,93.25
2023-05-06T08:43:48.682Z,94.09
2023-05-06T08:46:15.996Z,87.11
2023-05-06T08:48:43.327Z,88.15
2023-05-06T08:51:15.506Z,88.18
2023-05-06T08:53:49.519Z,87.08
2023-05-06T08:56:17.477Z,88.66
2023-05-06T08:58:50.036Z,89.64
2023-05-06T09:01:17.331Z,86.71
2023-05-06T09:03:44.403Z,89.24
2023-05-06T09:06:11.487Z,87.37
2023-05-06T09:08:38.382Z,87.07
2023-05-06T09:11:23.753Z,86.11
2023-05-06T09:13:51.744Z,81.64
2023-05-06T09:16:29.644Z,81.93
2023-05-06T09:18:57.393Z,81.20
2023-05-06T09:21:34.375Z,80.21
2023-05-06T09:24:03.090Z,77.35
2023-05-06T09:26:31.777Z,76.70
2023-05-06T09:29:00.146Z,80.73
2023-05-06T09:31:28.803Z,81.82
2023-05-06T09:33:58.108Z,80.70
2023-05-06T09:36:31.798Z,79.26
2023-05-06T09:38:59.535Z,77.83
2023-05-06T09:41:26.665Z,79.29
2023-05-06T09:43:54.816Z,76.86
2023-05-06T09:46:22.990Z,77.91
2023-05-06T09:48:54.658Z,80.35
2023-05-06T09:51:21.838Z,79.85
2023-05-06T09:53:49.184Z,73.13
2023-05-06T09:56:16.737Z,72.45
2023-05-06T09:58:43.857Z,70.21
2023-05-06T10:01:19.154Z,76.37
2023-05-06T10:03:53.909Z,67.78
2023-05-06T10:06:23.528Z,59.06
2023-05-06T10:08:51.183Z,59.85
2023-05-06T10:11:19.316Z,63.42
2023-05-06T10:13:47.197Z,59.64
2023-05-06T10:16:15.835Z,60.37
2023-05-06T10:18:46.021Z,57.73
2023-05-06T10:21:22.137Z,57.75
2023-05-06T10:23:57.523Z,54.08
2023-05-06T10:26:27.668Z,54.40
2023-05-06T10:28:55.110Z,57.24
2023-05-06T10:31:22.261Z,52.22
2023-05-06T10:33:52.305Z,50.89
2023-05-06T10:36:24.761Z,56.84
2023-05-06T10:38:57.031Z,58.14
2023-05-06T10:41:28.103Z,50.44
2023-05-06T10:44:00.324Z,53.13
2023-05-06T10:46:31.054Z,54.13
2023-05-06T10:49:08.597Z,55.35
2023-05-06T10:51:38.024Z,50.96
2023-05-06T10:54:21.872Z,54.42
2023-05-06T10:56:48.846Z,54.29
2023-05-06T10:59:24.471Z,58.39
2023-05-06T11:01:56.599Z,56.26
2023-05-06T11:04:23.627Z,54.20
2023-05-06T11:06:53.933Z,54.28
2023-05-06T11:09:20.853Z,54.56
2023-05-06T11:11:47.756Z,53.16
2023-05-06T11:14:32.694Z,53.69
2023-05-06T11:17:01.758Z,54.40
2023-05-06T11:19:31.198Z,49.32
2023-05-06T11:21:58.952Z,47.33
2023-05-06T11:24:30.770Z,52.13
2023-05-06T11:26:59.909Z,51.70
2023-05-06T11:29:27.273Z,50.10
2023-05-06T11:31:54.429Z,44.36
2023-05-06T11:34:29.309Z,50.81
2023-05-06T11:37:02.557Z,51.12
2023-05-06T11:39:34.906Z,52.18
2023-05-06T11:42:08.128Z,48.92
2023-05-06T11:44:37.012Z,45.50
2023-05-06T11:47:06.184Z,41.17
2023-05-06T11:49:42.212Z,42.72
2023-05-06T11:52:10.932Z,43.89
2023-05-06T11:54:42.184Z,43.93
2023-05-06T11:57:09.829Z,45.40
2023-05-06T11:59:38.483Z,47.29
2023-05-06T12:02:10.563Z,42.80
2023-05-06T12:04:48.106Z,41.84
2023-05-06T12:07:16.494Z,43.44
2023-05-06T12:09:47.364Z,42.60
2023-05-06T12:12:24.108Z,38.72
2023-05-06T12:14:53.015Z,37.22
2023-05-06T12:17:20.459Z,42.50
2023-05-06T12:19:47.853Z,48.21
2023-05-06T12:22:27.373Z,39.13
2023-05-06T12:24:54.477Z,42.81
2023-05-06T12:27:35.683Z,40.78
2023-05-06T12:30:04.900Z,40.42
2023-05-06T12:32:32.375Z,39.23
2023-05-06T12:35:00.682Z,39.84
2023-05-06T12:37:29.212Z,40.40
2023-05-06T12:40:08.223Z,41.35
2023-05-06T12:42:35.403Z,39.67
2023-05-06T12:45:14.630Z,39.83
2023-05-06T12:47:52.180Z,40.95
2023-05-06T12:50:39.808Z,38.56
2023-05-06T12:53:09.733Z,38.05
2023-05-06T12:55:38.720Z,38.93
2023-05-06T12:58:16.102Z,40.32
2023-05-06T13:00:43.113Z,41.28
2023-05-06T13:03:11.719Z,39.80
2023-05-06T13:05:38.878Z,39.79
2023-05-06T13:08:06.485Z,40.28
2023-05-06T13:10:33.454Z,42.80
2023-05-06T13:13:00.575Z,46.36
2023-05-06T13:15:27.854Z,45.88
2023-05-06T13:17:55.269Z,47.18
2023-05-06T13:20:22.415Z,49.46
2023-05-06T13:22:54.837Z,49.87
2023-05-06T13:25:22.902Z,50.18
2023-05-06T13:27:49.901Z,47.53
2023-05-06T13:30:17.216Z,46.95
2023-05-06T13:32:46.200Z,49.23
2023-05-06T13:35:13.390Z,45.15
2023-05-06T13:37:40.360Z,45.98
2023-05-06T13:40:08.949Z,46.21
2023-05-06T13:42:36.726Z,45.88
2023-05-06T13:45:03.880Z,45.23
2023-05-06T13:47:31.443Z,45.63
2023-05-06T13:49:58.474Z,46.55
2023-05-06T13:52:25.648Z,45.58
2023-05-06T13:54:52.654Z,44.81
2023-05-06T13:57:19.724Z,43.51
2023-05-06T13:59:46.667Z,40.35
2023-05-06T14:02:13.958Z,40.51
2023-05-06T14:04:41.149Z,41.56
2023-05-06T14:07:08.122Z,38.46
2023-05-06T14:09:35.125Z,37.49
2023-05-06T14:12:03.094Z,37.07
2023-05-06T14:14:30.053Z,37.56
2023-05-06T14:16:56.971Z,38.54
2023-05-06T14:19:24.418Z,38.51
2023-05-06T14:21:52.020Z,37.15
2023-05-06T14:24:18.957Z,36.47
2023-05-06T14:26:46.330Z,39.41
2023-05-06T14:29:13.264Z,38.79
2023-05-06T14:31:40.181Z,37.21
2023-05-06T14:34:07.235Z,37.32
2023-05-06T14:36:34.179Z,37.63
2023-05-06T14:39:01.085Z,39.18
2023-05-06T14:41:28.052Z,36.78
2023-05-06T14:43:55.010Z,37.11
2023-05-06T14:46:21.955Z,37.67
2023-05-06T14:48:49.069Z,37.93
2023-05-06T14:51:15.991Z,38.36
2023-05-06T14:53:42.960Z,37.80
2023-05-06T14:56:10.899Z,39.05
2023-05-06T14:58:39.593Z,35.27
2023-05-06T15:01:07.243Z,35.50
2023-05-06T15:03:34.352Z,35.25
2023-05-06T15:06:01.357Z,36.96
2023-05-06T15:08:28.368Z,37.31
2023-05-06T15:10:55.478Z,38.36
2023-05-06T15:13:22.552Z,38.92
2023-05-06T15:15:49.672Z,39.05
2023-05-06T15:18:16.668Z,36.41
2023-05-06T15:20:43.590Z,33.99
2023-05-06T15:23:10.921Z,30.65
2023-05-06T15:25:38.302Z,29.15
2023-05-06T15:28:06.048Z,27.77
2023-05-06T15:30:33.017Z,26.97
2023-05-06T15:33:01.981Z,27.62
2023-05-06T15:35:29.020Z,28.79
2023-05-06T15:37:59.203Z,28.31
2023-05-06T15:40:27.203Z,27.18
2023-05-06T15:42:54.320Z,26.79
2023-05-06T15:45:22.313Z,27.42
2023-05-06T15:48:00.085Z,29.02
2023-05-06T15:50:33.345Z,32.24
2023-05-06T15:53:02.031Z,32.59
2023-05-06T15:55:29.518Z,33.36
2023-05-06T15:57:59.154Z,33.11
2023-05-06T16:00:28.225Z,32.80
2023-05-06T16:02:55.291Z,30.24
2023-05-06T16:05:22.335Z,28.19
2023-05-06T16:07:49.856Z,26.12
2023-05-06T16:10:16.972Z,25.50
2023-05-06T16:12:43.952Z,25.20
2023-05-06T16:15:14.428Z,24.75
2023-05-06T16:17:41.708Z,25.31
2023-05-06T16:20:10.801Z,26.98
2023-05-06T16:22:41.410Z,26.38
2023-05-06T16:25:15.185Z,27.19
2023-05-06T16:27:42.287Z,26.23
2023-05-06T16:30:10.117Z,27.21
2023-05-06T16:32:37.297Z,28.53
2023-05-06T16:35:04.463Z,29.20
2023-05-06T16:37:31.468Z,30.05
2023-05-06T16:39:58.374Z,29.83
2023-05-06T16:42:25.334Z,29.15
2023-05-06T16:44:52.318Z,30.42
2023-05-06T16:47:23.841Z,28.30
2023-05-06T16:49:51.066Z,26.89
2023-05-06T16:52:18.589Z,26.66
2023-05-06T16:54:45.786Z,26.92
2023-05-06T16:57:12.755Z,27.23
2023-05-06T16:59:39.712Z,27.68
2023-05-06T17:02:07.803Z,28.44
2023-05-06T17:04:34.823Z,29.10
2023-05-06T17:07:01.820Z,29.91
2023-05-06T17:09:29.020Z,31.80
2023-05-06T17:11:56.150Z,33.48
2023-05-06T17:14:23.176Z,33.95
2023-05-06T17:16:52.299Z,35.18
2023-05-06T17:19:19.493Z,35.68
2023-05-06T17:21:49.547Z,36.83
2023-05-06T17:24:16.674Z,36.91
2023-05-06T17:26:43.665Z,37.15
2023-05-06T17:29:10.664Z,37.75
2023-05-06T17:31:37.562Z,38.65
2023-05-06T17:34:04.531Z,39.25
2023-05-06T17:36:31.893Z,40.09
2023-05-06T17:39:06.204Z,41.06
2023-05-06T17:41:33.895Z,42.12
2023-05-06T17:44:01.349Z,41.95
2023-05-06T17:46:28.439Z,41.62
2023-05-06T17:48:55.523Z,42.19
2023-05-06T17:51:22.526Z,42.39
2023-05-06T17:53:49.512Z,43.05
2023-05-06T17:56:16.859Z,43.87
2023-05-06T17:58:43.773Z,44.28
2023-05-06T18:01:10.788Z,44.84
2023-05-06T18:03:39.728Z,45.53
2023-05-06T18:06:06.947Z,45.95
2023-05-06T18:08:33.918Z,46.39
2023-05-06T18:11:00.942Z,47.72
2023-05-06T18:13:27.930Z,50.88
2023-05-06T18:15:55.017Z,53.73
2023-05-06T18:18:22.029Z,55.24
2023-05-06T18:20:48.996Z,56.35
2023-05-06T18:23:16.163Z,61.81
2023-05-06T18:25:43.167Z,63.38
2023-05-06T18:28:10.383Z,63.38
2023-05-06T18:30:37.429Z,64.09
2023-05-06T18:33:04.321Z,64.22
2023-05-06T18:35:31.380Z,66.51
2023-05-06T18:37:58.328Z,66.69
2023-05-06T18:40:25.271Z,68.29
2023-05-06T18:42:53.322Z,69.86
2023-05-06T18:45:20.517Z,71.30
2023-05-06T18:47:47.488Z,73.37
2023-05-06T18:50:14.627Z,74.55
2023-05-06T18:52:41.715Z,74.82
2023-05-06T18:55:09.316Z,75.86
2023-05-06T18:57:36.466Z,75.64
2023-05-06T19:00:05.083Z,75.80
2023-05-06T19:02:32.076Z,73.92
2023-05-06T19:04:59.079Z,74.55
2023-05-06T19:07:26.074Z,74.26
2023-05-06T19:09:53.094Z,74.41
2023-05-06T19:12:19.949Z,76.99
2023-05-06T19:14:46.866Z,77.16
2023-05-06T19:17:14.630Z,77.47
2023-05-06T19:19:41.986Z,76.35
2023-05-06T19:22:08.947Z,75.65
2023-05-06T19:24:35.921Z,76.62
2023-05-06T19:27:02.913Z,77.22
2023-05-06T19:29:29.919Z,79.08
2023-05-06T19:31:56.865Z,78.95
2023-05-06T19:34:23.815Z,78.66
2023-05-06T19:36:50.952Z,79.04
2023-05-06T19:39:17.946Z,78.72
2023-05-06T19:41:45.300Z,78.22
2023-05-06T19:44:13.772Z,77.07
2023-05-06T19:46:40.870Z,76.60
2023-05-06T19:49:07.915Z,76.44
2023-05-06T19:51:34.867Z,76.74
2023-05-06T19:54:01.870Z,77.50
2023-05-06T19:56:28.828Z,77.54
2023-05-06T19:58:55.835Z,76.68
2023-05-06T20:01:24.110Z,76.11
2023-05-06T20:03:51.450Z,75.41
2023-05-06T20:06:18.452Z,74.32
2023-05-06T20:08:45.386Z,72.51
2023-05-06T20:11:12.435Z,73.89
2023-05-06T20:13:39.530Z,72.94
2023-05-06T20:16:07.027Z,73.79
2023-05-06T20:18:34.050Z,75.66
2023-05-06T20:21:01.156Z,77.92
2023-05-06T20:23:28.089Z,78.29
2023-05-06T20:25:55.137Z,79.38
2023-05-06T20:28:22.146Z,80.58
2023-05-06T20:30:49.139Z,81.22
2023-05-06T20:33:16.815Z,81.68
2023-05-06T20:35:43.802Z,82.58
2023-05-06T20:38:11.203Z,82.79
2023-05-06T20:40:38.233Z,86.40
2023-05-06T20:43:05.363Z,87.17
2023-05-06T20:45:32.324Z,89.02
2023-05-06T20:47:59.325Z,89.32
2023-05-06T20:50:26.353Z,90.18
2023-05-06T20:52:54.621Z,90.83
2023-05-06T20:55:23.672Z,92.59
2023-05-06T20:57:51.117Z,94.60
2023-05-06T21:00:19.009Z,95.57
2023-05-06T21:02:46.135Z,97.02
2023-05-06T21:05:13.504Z,98.41
2023-05-06T21:07:40.951Z,99.26
2023-05-06T21:10:08.195Z,100.00
2023-05-06T21:12:35.383Z,100.00
2023-05-06T21:15:02.361Z,100.00
2023-05-06T21:17:29.467Z,100.00
2023-05-06T21:19:56.544Z,100.00
2023-05-06T21:22:24.315Z,100.00
2023-05-06T21:24:51.451Z,100.00
2023-05-06T21:27:18.672Z,100.00
2023-05-06T21:29:45.759Z,100.00
2023-05-06T21:32:12.944Z,100.00
2023-05-06T21:34:39.916Z,100.00
2023-05-06T21:37:06.910Z,100.00
2023-05-06T21:39:33.904Z,100.00
2023-05-06T21:42:01.059Z,100.00
2023-05-06T21:44:28.023Z,100.00
2023-05-06T21:46:55.023Z,100.00
2023-05-06T21:49:22.524Z,100.00
2023-05-06T21:51:49.666Z,100.00
2023-05-06T21:54:17.545Z,100.00
2023-05-06T21:56:45.098Z,100.00
2023-05-06T21:59:14.601Z,100.00
2023-05-06T22:01:41.659Z,100.00
2023-05-06T22:04:13.116Z,100.00
2023-05-06T22:06:40.604Z,100.00
2023-05-06T22:09:12.047Z,100.00
2023-05-06T22:11:40.318Z,100.00
2023-05-06T22:14:07.316Z,100.00
2023-05-06T22:16:35.766Z,100.00
2023-05-06T22:19:05.089Z,100.00
2023-05-06T22:21:34.745Z,100.00
2023-05-06T22:24:01.757Z,100.00
2023-05-06T22:26:28.883Z,100.00
2023-05-06T22:28:56.726Z,100.00
2023-05-06T22:31:25.018Z,100.00
2023-05-06T22:33:55.732Z,100.00
2023-05-06T22:36:22.873Z,100.00
2023-05-06T22:38:50.416Z,100.00
2023-05-06T22:41:18.569Z,100.00
2023-05-06T22:43:45.698Z,100.00
2023-05-06T22:46:12.970Z,100.00
2023-05-06T22:48:40.713Z,100.00
2023-05-06T22:51:11.042Z,100.00
2023-05-06T22:53:38.375Z,100.00
2023-05-06T22:56:05.742Z,100.00
2023-05-06T22:58:32.838Z,100.00
2023-05-06T23:01:00.014Z,100.00
2023-05-06T23:03:27.184Z,100.00
2023-05-06T23:05:57.872Z,100.00
2023-05-06T23:08:24.949Z,100.00
2023-05-06T23:10:52.058Z,100.00
2023-05-06T23:13:19.393Z,100.00
2023-05-06T23:15:46.772Z,100.00
2023-05-06T23:18:13.680Z,100.00
2023-05-06T23:20:40.668Z,100.00
2023-05-06T23:23:10.814Z,100.00
2023-05-06T23:25:38.128Z,100.00
2023-05-06T23:28:05.222Z,100.00
2023-05-06T23:30:32.304Z,100.00
2023-05-06T23:32:59.365Z,100.00
2023-05-06T23:35:26.335Z,100.00
2023-05-06T23:37:53.231Z,100.00
2023-05-06T23:40:20.232Z,100.00
2023-05-06T23:42:47.186Z,100.00
2023-05-06T23:45:14.165Z,100.00
2023-05-06T23:47:41.244Z,100.00
2023-05-06T23:50:09.047Z,100.00
2023-05-06T23:52:38.360Z,100.00
2023-05-06T23:55:06.185Z,100.00
2023-05-06T23:57:33.150Z,100.00
